sensor_id;sensor_type;location;lat;lon;timestamp;temperature;humidity
24614;DHT22;12760;46.296;25.290;2022-12-18T00:01:56;5.90;99.90
24614;DHT22;12760;46.296;25.290;2022-12-18T00:04:25;5.90;99.90
24614;DHT22;12760;46.296;25.290;2022-12-18T00:06:52;5.80;99.90
24614;DHT22;12760;46.296;25.290;2022-12-18T00:09:18;5.70;99.90
24614;DHT22;12760;46.296;25.290;2022-12-18T00:11:44;5.70;99.90
24614;DHT22;12760;46.296;25.290;2022-12-18T00:14:12;5.60;99.90
24614;DHT22;12760;46.296;25.290;2022-12-18T00:16:38;5.70;99.90
24614;DHT22;12760;46.296;25.290;2022-12-18T00:19:04;5.70;99.90
24614;DHT22;12760;46.296;25.290;2022-12-18T00:21:31;5.70;99.90
24614;DHT22;12760;46.296;25.290;2022-12-18T00:23:59;5.80;99.90
24614;DHT22;12760;46.296;25.290;2022-12-18T00:26:30;5.70;99.90
24614;DHT22;12760;46.296;25.290;2022-12-18T00:29:02;5.70;99.90
24614;DHT22;12760;46.296;25.290;2022-12-18T00:31:28;5.70;99.90
24614;DHT22;12760;46.296;25.290;2022-12-18T00:33:55;5.70;99.90
24614;DHT22;12760;46.296;25.290;2022-12-18T00:36:26;5.70;99.90
24614;DHT22;12760;46.296;25.290;2022-12-18T00:38:54;5.60;99.90
24614;DHT22;12760;46.296;25.290;2022-12-18T00:41:20;5.50;99.90
24614;DHT22;12760;46.296;25.290;2022-12-18T00:44:06;5.50;99.90
24614;DHT22;12760;46.296;25.290;2022-12-18T00:46:32;5.40;99.90
24614;DHT22;12760;46.296;25.290;2022-12-18T00:48:58;5.40;99.90
24614;DHT22;12760;46.296;25.290;2022-12-18T00:51:26;5.40;99.90
24614;DHT22;12760;46.296;25.290;2022-12-18T00:53:52;5.40;99.90
24614;DHT22;12760;46.296;25.290;2022-12-18T00:56:18;5.40;99.90
24614;DHT22;12760;46.296;25.290;2022-12-18T00:58:44;5.40;99.90
24614;DHT22;12760;46.296;25.290;2022-12-18T01:01:10;5.30;99.90
24614;DHT22;12760;46.296;25.290;2022-12-18T01:03:35;5.30;99.90
24614;DHT22;12760;46.296;25.290;2022-12-18T01:06:09;5.30;99.90
24614;DHT22;12760;46.296;25.290;2022-12-18T01:08:35;5.40;99.90
24614;DHT22;12760;46.296;25.290;2022-12-18T01:11:06;5.30;99.90
24614;DHT22;12760;46.296;25.290;2022-12-18T01:13:32;5.40;99.90
24614;DHT22;12760;46.296;25.290;2022-12-18T01:15:58;5.40;99.90
24614;DHT22;12760;46.296;25.290;2022-12-18T01:18:23;5.30;99.90
24614;DHT22;12760;46.296;25.290;2022-12-18T01:20:49;5.30;99.90
24614;DHT22;12760;46.296;25.290;2022-12-18T01:23:15;5.30;99.90
24614;DHT22;12760;46.296;25.290;2022-12-18T01:25:41;5.30;99.90
24614;DHT22;12760;46.296;25.290;2022-12-18T01:28:06;5.30;99.90
24614;DHT22;12760;46.296;25.290;2022-12-18T01:30:32;5.20;99.90
24614;DHT22;12760;46.296;25.290;2022-12-18T01:32:58;5.10;99.90
24614;DHT22;12760;46.296;25.290;2022-12-18T01:35:23;5.00;99.90
24614;DHT22;12760;46.296;25.290;2022-12-18T01:37:49;5.00;99.90
24614;DHT22;12760;46.296;25.290;2022-12-18T01:40:19;5.00;99.90
24614;DHT22;12760;46.296;25.290;2022-12-18T01:42:44;4.90;99.90
24614;DHT22;12760;46.296;25.290;2022-12-18T01:50:46;4.90;99.90
24614;DHT22;12760;46.296;25.290;2022-12-18T01:53:19;4.90;99.90
24614;DHT22;12760;46.296;25.290;2022-12-18T01:55:55;4.80;99.90
24614;DHT22;12760;46.296;25.290;2022-12-18T01:58:39;4.70;99.90
24614;DHT22;12760;46.296;25.290;2022-12-18T02:01:08;4.70;99.90
24614;DHT22;12760;46.296;25.290;2022-12-18T02:03:34;4.80;99.90
24614;DHT22;12760;46.296;25.290;2022-12-18T02:11:53;4.70;99.90
24614;DHT22;12760;46.296;25.290;2022-12-18T02:14:38;4.70;99.90
24614;DHT22;12760;46.296;25.290;2022-12-18T02:17:14;4.60;99.90
24614;DHT22;12760;46.296;25.290;2022-12-18T02:19:53;4.60;99.90
24614;DHT22;12760;46.296;25.290;2022-12-18T02:28:00;4.60;99.90
24614;DHT22;12760;46.296;25.290;2022-12-18T02:30:30;4.50;99.90
24614;DHT22;12760;46.296;25.290;2022-12-18T02:32:57;4.50;99.90
24614;DHT22;12760;46.296;25.290;2022-12-18T02:35:28;4.50;99.90
24614;DHT22;12760;46.296;25.290;2022-12-18T02:37:55;4.40;99.90
24614;DHT22;12760;46.296;25.290;2022-12-18T02:40:24;4.20;99.90
24614;DHT22;12760;46.296;25.290;2022-12-18T02:42:51;4.20;99.90
24614;DHT22;12760;46.296;25.290;2022-12-18T02:45:17;4.20;99.90
24614;DHT22;12760;46.296;25.290;2022-12-18T02:47:46;4.20;99.90
24614;DHT22;12760;46.296;25.290;2022-12-18T02:50:22;4.20;99.90
24614;DHT22;12760;46.296;25.290;2022-12-18T02:58:53;4.40;99.90
24614;DHT22;12760;46.296;25.290;2022-12-18T03:06:54;4.40;99.90
24614;DHT22;12760;46.296;25.290;2022-12-18T03:09:29;4.40;99.90
24614;DHT22;12760;46.296;25.290;2022-12-18T03:12:17;4.30;99.90
24614;DHT22;12760;46.296;25.290;2022-12-18T03:15:03;4.30;99.90
24614;DHT22;12760;46.296;25.290;2022-12-18T03:17:32;4.30;99.90
24614;DHT22;12760;46.296;25.290;2022-12-18T03:20:06;4.40;99.90
24614;DHT22;12760;46.296;25.290;2022-12-18T03:22:34;4.40;99.90
24614;DHT22;12760;46.296;25.290;2022-12-18T03:25:04;4.40;99.90
24614;DHT22;12760;46.296;25.290;2022-12-18T03:27:33;4.20;99.90
24614;DHT22;12760;46.296;25.290;2022-12-18T03:30:12;4.20;99.90
24614;DHT22;12760;46.296;25.290;2022-12-18T03:33:02;4.10;99.90
24614;DHT22;12760;46.296;25.290;2022-12-18T03:35:34;4.10;99.90
24614;DHT22;12760;46.296;25.290;2022-12-18T03:38:02;4.10;99.90
24614;DHT22;12760;46.296;25.290;2022-12-18T03:40:50;4.10;99.90
24614;DHT22;12760;46.296;25.290;2022-12-18T03:48:52;4.10;99.90
24614;DHT22;12760;46.296;25.290;2022-12-18T03:51:28;4.00;99.90
24614;DHT22;12760;46.296;25.290;2022-12-18T03:53:59;4.10;99.90
24614;DHT22;12760;46.296;25.290;2022-12-18T03:56:29;4.00;99.90
24614;DHT22;12760;46.296;25.290;2022-12-18T03:58:57;4.10;99.90
24614;DHT22;12760;46.296;25.290;2022-12-18T04:01:34;4.10;99.90
24614;DHT22;12760;46.296;25.290;2022-12-18T04:04:01;4.00;99.90
24614;DHT22;12760;46.296;25.290;2022-12-18T04:06:29;4.00;99.90
24614;DHT22;12760;46.296;25.290;2022-12-18T04:08:57;4.00;99.90
24614;DHT22;12760;46.296;25.290;2022-12-18T04:11:23;4.10;99.90
24614;DHT22;12760;46.296;25.290;2022-12-18T04:13:48;4.20;99.90
24614;DHT22;12760;46.296;25.290;2022-12-18T04:16:14;4.20;99.90
24614;DHT22;12760;46.296;25.290;2022-12-18T04:18:40;4.20;99.90
24614;DHT22;12760;46.296;25.290;2022-12-18T04:21:05;4.20;99.90
24614;DHT22;12760;46.296;25.290;2022-12-18T04:23:31;4.30;99.90
24614;DHT22;12760;46.296;25.290;2022-12-18T04:25:57;4.30;99.90
24614;DHT22;12760;46.296;25.290;2022-12-18T04:28:22;4.40;99.90
24614;DHT22;12760;46.296;25.290;2022-12-18T04:30:48;4.50;99.90
24614;DHT22;12760;46.296;25.290;2022-12-18T04:33:14;4.50;99.90
24614;DHT22;12760;46.296;25.290;2022-12-18T04:35:43;4.60;99.90
24614;DHT22;12760;46.296;25.290;2022-12-18T04:38:09;4.50;99.90
24614;DHT22;12760;46.296;25.290;2022-12-18T04:40:38;4.40;99.90
24614;DHT22;12760;46.296;25.290;2022-12-18T04:43:04;4.20;99.90
24614;DHT22;12760;46.296;25.290;2022-12-18T04:45:31;4.20;99.90
24614;DHT22;12760;46.296;25.290;2022-12-18T04:48:01;4.30;99.90
24614;DHT22;12760;46.296;25.290;2022-12-18T04:50:27;4.30;99.90
24614;DHT22;12760;46.296;25.290;2022-12-18T04:52:53;4.30;99.90
24614;DHT22;12760;46.296;25.290;2022-12-18T04:55:19;4.30;99.90
24614;DHT22;12760;46.296;25.290;2022-12-18T04:57:44;4.20;99.90
24614;DHT22;12760;46.296;25.290;2022-12-18T05:00:10;4.30;99.90
24614;DHT22;12760;46.296;25.290;2022-12-18T05:02:36;4.30;99.90
24614;DHT22;12760;46.296;25.290;2022-12-18T05:05:02;4.30;99.90
24614;DHT22;12760;46.296;25.290;2022-12-18T05:07:28;4.30;99.90
24614;DHT22;12760;46.296;25.290;2022-12-18T05:09:54;4.20;99.90
24614;DHT22;12760;46.296;25.290;2022-12-18T05:12:19;4.30;99.90
24614;DHT22;12760;46.296;25.290;2022-12-18T05:14:45;4.30;99.90
24614;DHT22;12760;46.296;25.290;2022-12-18T05:17:11;4.20;99.90
24614;DHT22;12760;46.296;25.290;2022-12-18T05:19:36;4.30;99.90
24614;DHT22;12760;46.296;25.290;2022-12-18T05:22:02;4.20;99.90
24614;DHT22;12760;46.296;25.290;2022-12-18T05:24:28;4.10;99.90
24614;DHT22;12760;46.296;25.290;2022-12-18T05:26:53;4.20;99.90
24614;DHT22;12760;46.296;25.290;2022-12-18T05:29:19;4.10;99.90
24614;DHT22;12760;46.296;25.290;2022-12-18T05:31:45;4.00;99.90
24614;DHT22;12760;46.296;25.290;2022-12-18T05:34:10;4.00;99.90
24614;DHT22;12760;46.296;25.290;2022-12-18T05:36:36;4.00;99.90
24614;DHT22;12760;46.296;25.290;2022-12-18T05:39:03;4.10;99.90
24614;DHT22;12760;46.296;25.290;2022-12-18T05:41:28;4.10;99.90
24614;DHT22;12760;46.296;25.290;2022-12-18T05:43:54;4.00;99.90
24614;DHT22;12760;46.296;25.290;2022-12-18T05:46:20;4.10;99.90
24614;DHT22;12760;46.296;25.290;2022-12-18T05:48:46;4.20;99.90
24614;DHT22;12760;46.296;25.290;2022-12-18T05:51:17;4.30;99.90
24614;DHT22;12760;46.296;25.290;2022-12-18T05:53:43;4.30;99.90
24614;DHT22;12760;46.296;25.290;2022-12-18T05:56:13;4.30;99.90
24614;DHT22;12760;46.296;25.290;2022-12-18T05:58:40;4.30;99.90
24614;DHT22;12760;46.296;25.290;2022-12-18T06:01:12;4.10;99.90
24614;DHT22;12760;46.296;25.290;2022-12-18T06:03:38;4.00;99.90
24614;DHT22;12760;46.296;25.290;2022-12-18T06:06:11;3.90;99.90
24614;DHT22;12760;46.296;25.290;2022-12-18T06:08:37;4.00;99.90
24614;DHT22;12760;46.296;25.290;2022-12-18T06:11:03;4.10;99.90
24614;DHT22;12760;46.296;25.290;2022-12-18T06:13:29;4.00;99.90
24614;DHT22;12760;46.296;25.290;2022-12-18T06:15:54;4.00;99.90
24614;DHT22;12760;46.296;25.290;2022-12-18T06:18:20;3.90;99.90
24614;DHT22;12760;46.296;25.290;2022-12-18T06:20:57;3.80;99.90
24614;DHT22;12760;46.296;25.290;2022-12-18T06:23:23;3.70;99.90
24614;DHT22;12760;46.296;25.290;2022-12-18T06:25:49;3.70;99.90
24614;DHT22;12760;46.296;25.290;2022-12-18T06:28:15;3.80;99.90
24614;DHT22;12760;46.296;25.290;2022-12-18T06:30:44;3.70;99.90
24614;DHT22;12760;46.296;25.290;2022-12-18T06:33:10;3.60;99.90
24614;DHT22;12760;46.296;25.290;2022-12-18T06:35:35;3.60;99.90
24614;DHT22;12760;46.296;25.290;2022-12-18T06:38:02;3.70;99.90
24614;DHT22;12760;46.296;25.290;2022-12-18T06:40:28;3.70;99.90
24614;DHT22;12760;46.296;25.290;2022-12-18T06:42:54;3.80;99.90
24614;DHT22;12760;46.296;25.290;2022-12-18T06:45:20;3.80;99.90
24614;DHT22;12760;46.296;25.290;2022-12-18T06:47:46;3.90;99.90
24614;DHT22;12760;46.296;25.290;2022-12-18T06:50:12;3.80;99.90
24614;DHT22;12760;46.296;25.290;2022-12-18T06:52:38;3.90;99.90
24614;DHT22;12760;46.296;25.290;2022-12-18T06:55:08;3.90;99.90
24614;DHT22;12760;46.296;25.290;2022-12-18T06:57:34;3.80;99.90
24614;DHT22;12760;46.296;25.290;2022-12-18T07:00:00;3.80;99.90
24614;DHT22;12760;46.296;25.290;2022-12-18T07:02:26;3.90;99.90
24614;DHT22;12760;46.296;25.290;2022-12-18T07:04:51;4.00;99.90
24614;DHT22;12760;46.296;25.290;2022-12-18T07:07:17;4.10;99.90
24614;DHT22;12760;46.296;25.290;2022-12-18T07:09:43;4.20;99.90
24614;DHT22;12760;46.296;25.290;2022-12-18T07:12:09;4.10;99.90
24614;DHT22;12760;46.296;25.290;2022-12-18T07:14:34;4.20;99.90
24614;DHT22;12760;46.296;25.290;2022-12-18T07:17:00;4.30;99.90
24614;DHT22;12760;46.296;25.290;2022-12-18T07:19:26;4.30;99.90
24614;DHT22;12760;46.296;25.290;2022-12-18T07:21:51;4.30;99.90
24614;DHT22;12760;46.296;25.290;2022-12-18T07:24:17;4.40;99.90
24614;DHT22;12760;46.296;25.290;2022-12-18T07:26:46;4.30;99.90
24614;DHT22;12760;46.296;25.290;2022-12-18T07:29:11;4.30;99.90
24614;DHT22;12760;46.296;25.290;2022-12-18T07:31:37;4.30;99.90
24614;DHT22;12760;46.296;25.290;2022-12-18T07:34:03;4.30;99.90
24614;DHT22;12760;46.296;25.290;2022-12-18T07:36:28;4.20;99.90
24614;DHT22;12760;46.296;25.290;2022-12-18T07:38:54;4.20;99.90
24614;DHT22;12760;46.296;25.290;2022-12-18T07:41:20;4.30;99.90
24614;DHT22;12760;46.296;25.290;2022-12-18T07:43:46;4.20;99.90
24614;DHT22;12760;46.296;25.290;2022-12-18T07:46:13;4.20;99.90
24614;DHT22;12760;46.296;25.290;2022-12-18T07:48:40;4.10;99.90
24614;DHT22;12760;46.296;25.290;2022-12-18T07:51:07;4.20;99.90
24614;DHT22;12760;46.296;25.290;2022-12-18T07:53:34;4.20;99.90
24614;DHT22;12760;46.296;25.290;2022-12-18T07:56:03;4.10;99.90
24614;DHT22;12760;46.296;25.290;2022-12-18T07:58:29;4.10;99.90
24614;DHT22;12760;46.296;25.290;2022-12-18T08:01:03;4.20;99.90
24614;DHT22;12760;46.296;25.290;2022-12-18T08:03:29;4.20;99.90
24614;DHT22;12760;46.296;25.290;2022-12-18T08:05:59;4.20;99.90
24614;DHT22;12760;46.296;25.290;2022-12-18T08:08:25;4.20;99.90
24614;DHT22;12760;46.296;25.290;2022-12-18T08:10:51;4.20;99.90
24614;DHT22;12760;46.296;25.290;2022-12-18T08:13:16;4.30;99.90
24614;DHT22;12760;46.296;25.290;2022-12-18T08:15:42;4.30;99.90
24614;DHT22;12760;46.296;25.290;2022-12-18T08:18:08;4.30;99.90
24614;DHT22;12760;46.296;25.290;2022-12-18T08:20:33;4.30;99.90
24614;DHT22;12760;46.296;25.290;2022-12-18T08:22:59;4.30;99.90
24614;DHT22;12760;46.296;25.290;2022-12-18T08:25:25;4.20;99.90
24614;DHT22;12760;46.296;25.290;2022-12-18T08:27:51;4.30;99.90
24614;DHT22;12760;46.296;25.290;2022-12-18T08:30:16;4.30;99.90
24614;DHT22;12760;46.296;25.290;2022-12-18T08:32:42;4.30;99.90
24614;DHT22;12760;46.296;25.290;2022-12-18T08:35:08;4.20;99.90
24614;DHT22;12760;46.296;25.290;2022-12-18T08:37:34;4.20;99.90
24614;DHT22;12760;46.296;25.290;2022-12-18T08:40:00;4.20;99.90
24614;DHT22;12760;46.296;25.290;2022-12-18T08:42:26;4.20;99.90
24614;DHT22;12760;46.296;25.290;2022-12-18T08:45:10;4.30;99.90
24614;DHT22;12760;46.296;25.290;2022-12-18T08:47:36;4.10;99.90
24614;DHT22;12760;46.296;25.290;2022-12-18T08:50:01;4.10;99.90
24614;DHT22;12760;46.296;25.290;2022-12-18T08:52:27;4.10;99.90
24614;DHT22;12760;46.296;25.290;2022-12-18T08:54:53;4.10;99.90
24614;DHT22;12760;46.296;25.290;2022-12-18T08:57:19;4.10;99.90
24614;DHT22;12760;46.296;25.290;2022-12-18T08:59:45;4.20;99.90
24614;DHT22;12760;46.296;25.290;2022-12-18T09:02:11;4.20;99.90
24614;DHT22;12760;46.296;25.290;2022-12-18T09:04:36;4.10;99.90
24614;DHT22;12760;46.296;25.290;2022-12-18T09:07:02;4.10;99.90
24614;DHT22;12760;46.296;25.290;2022-12-18T09:09:28;4.20;99.90
24614;DHT22;12760;46.296;25.290;2022-12-18T09:11:54;4.20;99.90
24614;DHT22;12760;46.296;25.290;2022-12-18T09:14:19;4.20;99.90
24614;DHT22;12760;46.296;25.290;2022-12-18T09:16:45;4.30;99.90
24614;DHT22;12760;46.296;25.290;2022-12-18T09:19:11;4.30;99.90
24614;DHT22;12760;46.296;25.290;2022-12-18T09:21:36;4.30;99.90
24614;DHT22;12760;46.296;25.290;2022-12-18T09:24:04;4.20;99.90
24614;DHT22;12760;46.296;25.290;2022-12-18T09:26:30;4.20;99.90
24614;DHT22;12760;46.296;25.290;2022-12-18T09:28:56;4.10;99.90
24614;DHT22;12760;46.296;25.290;2022-12-18T09:31:23;4.10;99.90
24614;DHT22;12760;46.296;25.290;2022-12-18T09:33:50;4.10;99.90
24614;DHT22;12760;46.296;25.290;2022-12-18T09:36:17;4.10;99.90
24614;DHT22;12760;46.296;25.290;2022-12-18T09:38:44;4.20;99.90
24614;DHT22;12760;46.296;25.290;2022-12-18T09:43:53;4.10;99.90
24614;DHT22;12760;46.296;25.290;2022-12-18T09:46:32;4.10;99.90
24614;DHT22;12760;46.296;25.290;2022-12-18T09:49:02;4.20;99.90
24614;DHT22;12760;46.296;25.290;2022-12-18T09:51:34;4.10;99.90
24614;DHT22;12760;46.296;25.290;2022-12-18T09:54:20;4.10;99.90
24614;DHT22;12760;46.296;25.290;2022-12-18T09:56:47;4.10;99.90
24614;DHT22;12760;46.296;25.290;2022-12-18T09:59:33;4.20;99.90
24614;DHT22;12760;46.296;25.290;2022-12-18T10:02:22;4.20;99.90
24614;DHT22;12760;46.296;25.290;2022-12-18T10:05:16;4.20;99.90
24614;DHT22;12760;46.296;25.290;2022-12-18T10:08:05;4.20;99.90
24614;DHT22;12760;46.296;25.290;2022-12-18T10:10:53;4.30;99.90
24614;DHT22;12760;46.296;25.290;2022-12-18T10:13:40;4.20;99.90
24614;DHT22;12760;46.296;25.290;2022-12-18T10:16:17;4.20;99.90
24614;DHT22;12760;46.296;25.290;2022-12-18T10:19:17;4.30;99.90
24614;DHT22;12760;46.296;25.290;2022-12-18T10:22:26;4.30;99.90
24614;DHT22;12760;46.296;25.290;2022-12-18T10:27:58;4.40;99.90
24614;DHT22;12760;46.296;25.290;2022-12-18T10:30:26;4.30;99.90
24614;DHT22;12760;46.296;25.290;2022-12-18T10:32:52;4.30;99.90
24614;DHT22;12760;46.296;25.290;2022-12-18T10:35:26;4.20;99.90
24614;DHT22;12760;46.296;25.290;2022-12-18T10:38:25;4.30;99.90
24614;DHT22;12760;46.296;25.290;2022-12-18T10:40:53;4.10;99.90
24614;DHT22;12760;46.296;25.290;2022-12-18T10:43:38;4.20;99.90
24614;DHT22;12760;46.296;25.290;2022-12-18T10:51:03;4.00;99.90
24614;DHT22;12760;46.296;25.290;2022-12-18T10:53:30;4.00;99.90
24614;DHT22;12760;46.296;25.290;2022-12-18T10:55:58;4.10;99.90
24614;DHT22;12760;46.296;25.290;2022-12-18T10:58:37;4.20;99.90
24614;DHT22;12760;46.296;25.290;2022-12-18T11:01:18;4.20;99.90
24614;DHT22;12760;46.296;25.290;2022-12-18T11:06:22;4.20;99.90
24614;DHT22;12760;46.296;25.290;2022-12-18T11:09:04;4.30;99.90
24614;DHT22;12760;46.296;25.290;2022-12-18T11:11:32;4.40;99.90
24614;DHT22;12760;46.296;25.290;2022-12-18T11:14:12;4.40;99.90
24614;DHT22;12760;46.296;25.290;2022-12-18T11:16:44;4.50;99.90
24614;DHT22;12760;46.296;25.290;2022-12-18T11:19:36;4.50;99.90
24614;DHT22;12760;46.296;25.290;2022-12-18T11:22:17;4.50;99.90
24614;DHT22;12760;46.296;25.290;2022-12-18T11:25:03;4.50;99.90
24614;DHT22;12760;46.296;25.290;2022-12-18T11:27:31;4.40;99.90
24614;DHT22;12760;46.296;25.290;2022-12-18T11:30:26;4.20;99.90
24614;DHT22;12760;46.296;25.290;2022-12-18T11:33:05;4.20;99.90
24614;DHT22;12760;46.296;25.290;2022-12-18T11:38:54;4.20;99.90
24614;DHT22;12760;46.296;25.290;2022-12-18T11:44:50;4.30;99.90
24614;DHT22;12760;46.296;25.290;2022-12-18T11:49:51;4.40;99.90
24614;DHT22;12760;46.296;25.290;2022-12-18T11:52:39;4.40;99.90
24614;DHT22;12760;46.296;25.290;2022-12-18T11:55:12;4.40;99.90
24614;DHT22;12760;46.296;25.290;2022-12-18T12:00:23;4.40;99.90
24614;DHT22;12760;46.296;25.290;2022-12-18T12:10:39;4.50;99.90
24614;DHT22;12760;46.296;25.290;2022-12-18T12:21:41;4.50;99.90
24614;DHT22;12760;46.296;25.290;2022-12-18T12:32:27;4.30;99.90
24614;DHT22;12760;46.296;25.290;2022-12-18T12:40:27;4.40;99.90
24614;DHT22;12760;46.296;25.290;2022-12-18T12:43:23;4.40;99.90
24614;DHT22;12760;46.296;25.290;2022-12-18T12:45:55;4.40;99.90
24614;DHT22;12760;46.296;25.290;2022-12-18T12:48:34;4.40;99.90
24614;DHT22;12760;46.296;25.290;2022-12-18T12:51:45;4.30;99.90
24614;DHT22;12760;46.296;25.290;2022-12-18T12:53:52;4.30;99.90
24614;DHT22;12760;46.296;25.290;2022-12-18T12:56:20;4.30;99.90
24614;DHT22;12760;46.296;25.290;2022-12-18T12:58:52;4.30;99.90
24614;DHT22;12760;46.296;25.290;2022-12-18T13:09:20;4.30;99.90
24614;DHT22;12760;46.296;25.290;2022-12-18T13:11:47;4.20;99.90
24614;DHT22;12760;46.296;25.290;2022-12-18T13:14:39;4.20;99.90
24614;DHT22;12760;46.296;25.290;2022-12-18T13:19:51;4.20;99.90
24614;DHT22;12760;46.296;25.290;2022-12-18T13:22:28;4.20;99.90
24614;DHT22;12760;46.296;25.290;2022-12-18T13:24:55;4.20;99.90
24614;DHT22;12760;46.296;25.290;2022-12-18T13:28:02;4.30;99.90
24614;DHT22;12760;46.296;25.290;2022-12-18T13:41:01;4.30;99.90
24614;DHT22;12760;46.296;25.290;2022-12-18T13:43:28;4.30;99.90
24614;DHT22;12760;46.296;25.290;2022-12-18T13:46:30;4.30;99.90
24614;DHT22;12760;46.296;25.290;2022-12-18T13:51:55;4.00;99.90
24614;DHT22;12760;46.296;25.290;2022-12-18T13:56:52;4.00;99.90
24614;DHT22;12760;46.296;25.290;2022-12-18T14:01:53;4.00;99.90
24614;DHT22;12760;46.296;25.290;2022-12-18T14:09:58;4.10;99.90
24614;DHT22;12760;46.296;25.290;2022-12-18T14:15:40;4.10;99.90
24614;DHT22;12760;46.296;25.290;2022-12-18T14:18:24;4.00;99.90
24614;DHT22;12760;46.296;25.290;2022-12-18T14:20:53;4.00;99.90
24614;DHT22;12760;46.296;25.290;2022-12-18T14:23:45;4.00;99.90
24614;DHT22;12760;46.296;25.290;2022-12-18T14:26:25;4.10;99.90
24614;DHT22;12760;46.296;25.290;2022-12-18T14:28:53;4.10;99.90
24614;DHT22;12760;46.296;25.290;2022-12-18T14:31:25;4.10;99.90
24614;DHT22;12760;46.296;25.290;2022-12-18T14:33:52;4.10;99.90
24614;DHT22;12760;46.296;25.290;2022-12-18T14:36:24;4.10;99.90
24614;DHT22;12760;46.296;25.290;2022-12-18T14:38:54;4.10;99.90
24614;DHT22;12760;46.296;25.290;2022-12-18T14:41:22;4.10;99.90
24614;DHT22;12760;46.296;25.290;2022-12-18T14:43:50;4.10;99.90
24614;DHT22;12760;46.296;25.290;2022-12-18T14:46:35;4.10;99.90
24614;DHT22;12760;46.296;25.290;2022-12-18T14:49:24;4.10;99.90
24614;DHT22;12760;46.296;25.290;2022-12-18T14:51:55;4.10;99.90
24614;DHT22;12760;46.296;25.290;2022-12-18T14:54:23;4.20;99.90
24614;DHT22;12760;46.296;25.290;2022-12-18T14:56:56;4.10;99.90
24614;DHT22;12760;46.296;25.290;2022-12-18T14:59:26;4.10;99.90
24614;DHT22;12760;46.296;25.290;2022-12-18T15:04:34;4.10;99.90
24614;DHT22;12760;46.296;25.290;2022-12-18T15:09:29;4.10;99.90
24614;DHT22;12760;46.296;25.290;2022-12-18T15:11:57;4.00;99.90
24614;DHT22;12760;46.296;25.290;2022-12-18T15:14:38;4.00;99.90
24614;DHT22;12760;46.296;25.290;2022-12-18T15:17:25;4.10;99.90
24614;DHT22;12760;46.296;25.290;2022-12-18T15:19:53;4.10;99.90
24614;DHT22;12760;46.296;25.290;2022-12-18T15:22:37;4.10;99.90
24614;DHT22;12760;46.296;25.290;2022-12-18T15:25:24;4.10;99.90
24614;DHT22;12760;46.296;25.290;2022-12-18T15:27:53;4.10;99.90
24614;DHT22;12760;46.296;25.290;2022-12-18T15:30:21;4.10;99.90
24614;DHT22;12760;46.296;25.290;2022-12-18T15:32:48;3.90;99.90
24614;DHT22;12760;46.296;25.290;2022-12-18T15:35:23;3.90;99.90
24614;DHT22;12760;46.296;25.290;2022-12-18T15:37:50;3.80;99.90
24614;DHT22;12760;46.296;25.290;2022-12-18T15:40:21;3.80;99.90
24614;DHT22;12760;46.296;25.290;2022-12-18T15:42:48;3.80;99.90
24614;DHT22;12760;46.296;25.290;2022-12-18T15:45:32;3.70;99.90
24614;DHT22;12760;46.296;25.290;2022-12-18T15:47:59;3.80;99.90
24614;DHT22;12760;46.296;25.290;2022-12-18T15:50:25;3.80;99.90
24614;DHT22;12760;46.296;25.290;2022-12-18T15:52:52;3.80;99.90
24614;DHT22;12760;46.296;25.290;2022-12-18T15:55:22;3.80;99.90
24614;DHT22;12760;46.296;25.290;2022-12-18T15:58:07;3.80;99.90
24614;DHT22;12760;46.296;25.290;2022-12-18T16:00:35;3.70;99.90
24614;DHT22;12760;46.296;25.290;2022-12-18T16:03:02;3.70;99.90
24614;DHT22;12760;46.296;25.290;2022-12-18T16:05:28;3.80;99.90
24614;DHT22;12760;46.296;25.290;2022-12-18T16:07:54;3.80;99.90
24614;DHT22;12760;46.296;25.290;2022-12-18T16:10:21;3.80;99.90
24614;DHT22;12760;46.296;25.290;2022-12-18T16:12:47;3.80;99.90
24614;DHT22;12760;46.296;25.290;2022-12-18T16:15:14;3.70;99.90
24614;DHT22;12760;46.296;25.290;2022-12-18T16:17:44;3.70;99.90
24614;DHT22;12760;46.296;25.290;2022-12-18T16:20:16;3.70;99.90
24614;DHT22;12760;46.296;25.290;2022-12-18T16:22:43;3.70;99.90
24614;DHT22;12760;46.296;25.290;2022-12-18T16:25:23;3.70;99.90
24614;DHT22;12760;46.296;25.290;2022-12-18T16:27:50;3.80;99.90
24614;DHT22;12760;46.296;25.290;2022-12-18T16:30:20;3.70;99.90
24614;DHT22;12760;46.296;25.290;2022-12-18T16:32:46;3.70;99.90
24614;DHT22;12760;46.296;25.290;2022-12-18T16:35:13;3.70;99.90
24614;DHT22;12760;46.296;25.290;2022-12-18T16:37:40;3.70;99.90
24614;DHT22;12760;46.296;25.290;2022-12-18T16:40:09;3.70;99.90
24614;DHT22;12760;46.296;25.290;2022-12-18T16:42:36;3.70;99.90
24614;DHT22;12760;46.296;25.290;2022-12-18T16:45:03;3.60;99.90
24614;DHT22;12760;46.296;25.290;2022-12-18T16:47:29;3.70;99.90
24614;DHT22;12760;46.296;25.290;2022-12-18T16:49:55;3.70;99.90
24614;DHT22;12760;46.296;25.290;2022-12-18T16:52:21;3.80;99.90
24614;DHT22;12760;46.296;25.290;2022-12-18T16:54:47;3.70;99.90
24614;DHT22;12760;46.296;25.290;2022-12-18T16:57:15;3.60;99.90
24614;DHT22;12760;46.296;25.290;2022-12-18T16:59:41;3.70;99.90
24614;DHT22;12760;46.296;25.290;2022-12-18T17:02:16;3.70;99.90
24614;DHT22;12760;46.296;25.290;2022-12-18T17:04:42;3.70;99.90
24614;DHT22;12760;46.296;25.290;2022-12-18T17:07:09;3.80;99.90
24614;DHT22;12760;46.296;25.290;2022-12-18T17:09:35;3.80;99.90
24614;DHT22;12760;46.296;25.290;2022-12-18T17:12:01;3.80;99.90
24614;DHT22;12760;46.296;25.290;2022-12-18T17:14:27;3.70;99.90
24614;DHT22;12760;46.296;25.290;2022-12-18T17:16:54;3.60;99.90
24614;DHT22;12760;46.296;25.290;2022-12-18T17:19:19;3.60;99.90
24614;DHT22;12760;46.296;25.290;2022-12-18T17:21:48;3.40;99.90
24614;DHT22;12760;46.296;25.290;2022-12-18T17:24:15;3.30;99.90
24614;DHT22;12760;46.296;25.290;2022-12-18T17:26:40;3.30;99.90
24614;DHT22;12760;46.296;25.290;2022-12-18T17:29:06;3.30;99.90
24614;DHT22;12760;46.296;25.290;2022-12-18T17:31:33;3.40;99.90
24614;DHT22;12760;46.296;25.290;2022-12-18T17:34:01;3.50;99.90
24614;DHT22;12760;46.296;25.290;2022-12-18T17:36:27;3.40;99.90
24614;DHT22;12760;46.296;25.290;2022-12-18T17:38:55;3.40;99.90
24614;DHT22;12760;46.296;25.290;2022-12-18T17:41:21;3.40;99.90
24614;DHT22;12760;46.296;25.290;2022-12-18T17:43:59;3.40;99.90
24614;DHT22;12760;46.296;25.290;2022-12-18T17:46:27;3.30;99.90
24614;DHT22;12760;46.296;25.290;2022-12-18T17:48:57;3.10;99.90
24614;DHT22;12760;46.296;25.290;2022-12-18T17:51:23;3.10;99.90
24614;DHT22;12760;46.296;25.290;2022-12-18T17:53:48;3.00;99.90
24614;DHT22;12760;46.296;25.290;2022-12-18T17:56:17;3.10;99.90
24614;DHT22;12760;46.296;25.290;2022-12-18T17:58:43;3.10;99.90
24614;DHT22;12760;46.296;25.290;2022-12-18T18:01:16;3.00;99.90